sensor_id;sensor_type;location;lat;lon;timestamp;pressure;altitude;pressure_sealevel;temperature;humidity
71770;BME280;66386;52.122;5.420;2023-05-23T00:01:00;102005.81;;;14.93;79.44
71770;BME280;66386;52.122;5.420;2023-05-23T00:03:27;102013.41;;;14.98;79.67
71770;BME280;66386;52.122;5.420;2023-05-23T00:05:56;102011.00;;;14.93;80.02
71770;BME280;66386;52.122;5.420;2023-05-23T00:08:24;102012.97;;;14.87;80.24
71770;BME280;66386;52.122;5.420;2023-05-23T00:10:50;102010.38;;;14.87;80.33
71770;BME280;66386;52.122;5.420;2023-05-23T00:13:17;102011.44;;;14.81;80.50
71770;BME280;66386;52.122;5.420;2023-05-23T00:15:44;102008.97;;;14.78;80.54
71770;BME280;66386;52.122;5.420;2023-05-23T00:18:11;102001.03;;;14.82;80.68
71770;BME280;66386;52.122;5.420;2023-05-23T00:20:39;102003.78;;;14.78;80.71
71770;BME280;66386;52.122;5.420;2023-05-23T00:23:10;102008.22;;;14.74;80.85
71770;BME280;66386;52.122;5.420;2023-05-23T00:25:39;102012.63;;;14.72;80.98
71770;BME280;66386;52.122;5.420;2023-05-23T00:28:06;102013.41;;;14.74;80.80
71770;BME280;66386;52.122;5.420;2023-05-23T00:30:33;102017.16;;;14.65;80.75
71770;BME280;66386;52.122;5.420;2023-05-23T00:33:00;102018.28;;;14.57;81.23
71770;BME280;66386;52.122;5.420;2023-05-23T00:35:27;102023.69;;;14.51;81.46
71770;BME280;66386;52.122;5.420;2023-05-23T00:37:53;102028.19;;;14.44;82.06
71770;BME280;66386;52.122;5.420;2023-05-23T00:40:21;102036.19;;;14.38;82.20
71770;BME280;66386;52.122;5.420;2023-05-23T00:42:48;102037.44;;;14.26;82.65
71770;BME280;66386;52.122;5.420;2023-05-23T00:45:15;102032.53;;;14.18;82.88
71770;BME280;66386;52.122;5.420;2023-05-23T00:47:43;102035.38;;;14.09;83.45
71770;BME280;66386;52.122;5.420;2023-05-23T00:50:14;102033.13;;;14.00;83.81
71770;BME280;66386;52.122;5.420;2023-05-23T00:52:42;102045.34;;;13.94;84.10
71770;BME280;66386;52.122;5.420;2023-05-23T00:55:10;102040.19;;;13.93;84.69
71770;BME280;66386;52.122;5.420;2023-05-23T00:57:37;102050.41;;;13.98;84.52
71770;BME280;66386;52.122;5.420;2023-05-23T01:00:07;102043.56;;;13.96;84.19
71770;BME280;66386;52.122;5.420;2023-05-23T01:02:41;102041.69;;;14.00;84.00
71770;BME280;66386;52.122;5.420;2023-05-23T01:05:14;102043.56;;;13.96;84.03
71770;BME280;66386;52.122;5.420;2023-05-23T01:07:47;102041.97;;;13.92;84.30
71770;BME280;66386;52.122;5.420;2023-05-23T01:10:15;102041.84;;;13.95;84.11
71770;BME280;66386;52.122;5.420;2023-05-23T01:13:09;102042.78;;;13.94;84.51
71770;BME280;66386;52.122;5.420;2023-05-23T01:20:59;102036.28;;;13.81;84.62
71770;BME280;66386;52.122;5.420;2023-05-23T01:23:51;102032.59;;;13.88;84.74
71770;BME280;66386;52.122;5.420;2023-05-23T01:26:53;102033.41;;;13.90;84.39
71770;BME280;66386;52.122;5.420;2023-05-23T01:29:31;102036.78;;;13.92;84.50
71770;BME280;66386;52.122;5.420;2023-05-23T01:32:00;102052.19;;;13.95;84.50
71770;BME280;66386;52.122;5.420;2023-05-23T01:34:27;102037.66;;;13.91;84.50
71770;BME280;66386;52.122;5.420;2023-05-23T01:36:55;102039.38;;;13.92;84.44
71770;BME280;66386;52.122;5.420;2023-05-23T01:39:22;102031.56;;;13.94;84.61
71770;BME280;66386;52.122;5.420;2023-05-23T01:41:50;102041.81;;;13.97;84.65
71770;BME280;66386;52.122;5.420;2023-05-23T01:44:18;102029.69;;;13.99;84.33
71770;BME280;66386;52.122;5.420;2023-05-23T01:46:47;102033.13;;;14.00;84.46
71770;BME280;66386;52.122;5.420;2023-05-23T01:49:15;102034.72;;;14.04;84.44
71770;BME280;66386;52.122;5.420;2023-05-23T01:51:44;102035.53;;;14.04;84.23
71770;BME280;66386;52.122;5.420;2023-05-23T01:54:12;102044.22;;;14.02;84.10
71770;BME280;66386;52.122;5.420;2023-05-23T01:56:42;102034.81;;;14.01;83.96
71770;BME280;66386;52.122;5.420;2023-05-23T01:59:08;102042.66;;;13.98;84.03
71770;BME280;66386;52.122;5.420;2023-05-23T02:01:36;102042.00;;;13.91;84.09
71770;BME280;66386;52.122;5.420;2023-05-23T02:04:03;102050.75;;;13.87;84.21
71770;BME280;66386;52.122;5.420;2023-05-23T02:06:29;102052.41;;;13.89;84.12
71770;BME280;66386;52.122;5.420;2023-05-23T02:08:57;102054.09;;;13.90;83.85
71770;BME280;66386;52.122;5.420;2023-05-23T02:11:23;102059.41;;;13.86;83.81
71770;BME280;66386;52.122;5.420;2023-05-23T02:13:50;102058.66;;;13.82;83.95
71770;BME280;66386;52.122;5.420;2023-05-23T02:16:16;102061.31;;;13.79;83.78
71770;BME280;66386;52.122;5.420;2023-05-23T02:18:43;102064.00;;;13.76;83.74
71770;BME280;66386;52.122;5.420;2023-05-23T02:21:11;102060.56;;;13.75;83.65
71770;BME280;66386;52.122;5.420;2023-05-23T02:23:38;102062.34;;;13.73;83.68
71770;BME280;66386;52.122;5.420;2023-05-23T02:26:04;102058.88;;;13.74;83.87
71770;BME280;66386;52.122;5.420;2023-05-23T02:28:30;102057.97;;;13.75;83.82
71770;BME280;66386;52.122;5.420;2023-05-23T02:30:57;102063.97;;;13.77;83.85
71770;BME280;66386;52.122;5.420;2023-05-23T02:33:24;102069.06;;;13.79;83.55
71770;BME280;66386;52.122;5.420;2023-05-23T02:35:50;102078.66;;;13.75;83.79
71770;BME280;66386;52.122;5.420;2023-05-23T02:38:17;102067.53;;;13.73;83.89
71770;BME280;66386;52.122;5.420;2023-05-23T02:40:45;102064.88;;;13.75;83.78
71770;BME280;66386;52.122;5.420;2023-05-23T02:43:12;102073.41;;;13.78;83.87
71770;BME280;66386;52.122;5.420;2023-05-23T02:45:38;102063.81;;;13.82;83.49
71770;BME280;66386;52.122;5.420;2023-05-23T02:48:05;102077.56;;;13.83;83.46
71770;BME280;66386;52.122;5.420;2023-05-23T02:50:32;102079.28;;;13.84;83.28
71770;BME280;66386;52.122;5.420;2023-05-23T02:52:58;102082.72;;;13.83;83.13
71770;BME280;66386;52.122;5.420;2023-05-23T02:55:25;102079.31;;;13.82;83.02
71770;BME280;66386;52.122;5.420;2023-05-23T02:57:51;102080.16;;;13.83;83.28
71770;BME280;66386;52.122;5.420;2023-05-23T03:00:18;102088.78;;;13.83;82.84
71770;BME280;66386;52.122;5.420;2023-05-23T03:02:45;102082.72;;;13.83;82.97
71770;BME280;66386;52.122;5.420;2023-05-23T03:05:11;102084.44;;;13.84;83.05
71770;BME280;66386;52.122;5.420;2023-05-23T03:07:38;102078.44;;;13.83;82.86
71770;BME280;66386;52.122;5.420;2023-05-23T03:10:05;102077.53;;;13.84;82.57
71770;BME280;66386;52.122;5.420;2023-05-23T03:12:32;102076.63;;;13.85;82.67
71770;BME280;66386;52.122;5.420;2023-05-23T03:14:58;102077.50;;;13.86;82.75
71770;BME280;66386;52.122;5.420;2023-05-23T03:17:25;102075.81;;;13.85;82.57
71770;BME280;66386;52.122;5.420;2023-05-23T03:19:51;102080.97;;;13.85;82.61
71770;BME280;66386;52.122;5.420;2023-05-23T03:22:18;102079.47;;;13.77;82.35
71770;BME280;66386;52.122;5.420;2023-05-23T03:24:44;102082.97;;;13.75;82.47
71770;BME280;66386;52.122;5.420;2023-05-23T03:27:11;102089.03;;;13.74;82.38
71770;BME280;66386;52.122;5.420;2023-05-23T03:29:38;102085.72;;;13.70;82.63
71770;BME280;66386;52.122;5.420;2023-05-23T03:32:04;102077.19;;;13.67;82.66
71770;BME280;66386;52.122;5.420;2023-05-23T03:34:31;102087.63;;;13.64;82.68
71770;BME280;66386;52.122;5.420;2023-05-23T03:36:59;102088.63;;;13.58;82.56
71770;BME280;66386;52.122;5.420;2023-05-23T03:39:25;102101.56;;;13.58;82.61
71770;BME280;66386;52.122;5.420;2023-05-23T03:41:52;102095.59;;;13.56;82.72
71770;BME280;66386;52.122;5.420;2023-05-23T03:44:18;102090.47;;;13.54;82.60
71770;BME280;66386;52.122;5.420;2023-05-23T03:46:45;102092.28;;;13.52;82.81
71770;BME280;66386;52.122;5.420;2023-05-23T03:49:13;102104.31;;;13.52;82.72
71770;BME280;66386;52.122;5.420;2023-05-23T03:51:39;102106.38;;;13.40;82.74
71770;BME280;66386;52.122;5.420;2023-05-23T03:54:05;102105.63;;;13.37;82.76
71770;BME280;66386;52.122;5.420;2023-05-23T03:56:32;102113.41;;;13.34;82.50
71770;BME280;66386;52.122;5.420;2023-05-23T03:58:58;102114.47;;;13.26;82.57
71770;BME280;66386;52.122;5.420;2023-05-23T04:01:26;102116.31;;;13.21;82.78
71770;BME280;66386;52.122;5.420;2023-05-23T04:03:53;102113.78;;;13.20;82.89
71770;BME280;66386;52.122;5.420;2023-05-23T04:06:19;102128.47;;;13.18;83.07
71770;BME280;66386;52.122;5.420;2023-05-23T04:08:46;102128.44;;;13.19;83.20
71770;BME280;66386;52.122;5.420;2023-05-23T04:11:13;102132.59;;;13.25;82.99
71770;BME280;66386;52.122;5.420;2023-05-23T04:13:39;102130.84;;;13.25;83.03
71770;BME280;66386;52.122;5.420;2023-05-23T04:16:08;102129.22;;;13.21;83.02
71770;BME280;66386;52.122;5.420;2023-05-23T04:18:34;102134.44;;;13.20;83.48
71770;BME280;66386;52.122;5.420;2023-05-23T04:21:04;102136.19;;;13.19;83.25
71770;BME280;66386;52.122;5.420;2023-05-23T04:23:31;102140.50;;;13.19;83.28
71770;BME280;66386;52.122;5.420;2023-05-23T04:25:57;102143.22;;;13.14;83.21
71770;BME280;66386;52.122;5.420;2023-05-23T04:28:25;102145.84;;;13.11;83.23
71770;BME280;66386;52.122;5.420;2023-05-23T04:30:52;102143.34;;;13.08;83.20
71770;BME280;66386;52.122;5.420;2023-05-23T04:33:19;102143.44;;;13.05;83.36
71770;BME280;66386;52.122;5.420;2023-05-23T04:35:45;102148.56;;;13.06;83.07
71770;BME280;66386;52.122;5.420;2023-05-23T04:38:12;102157.28;;;13.02;83.02
71770;BME280;66386;52.122;5.420;2023-05-23T04:40:39;102159.88;;;13.01;82.71
71770;BME280;66386;52.122;5.420;2023-05-23T04:43:05;102167.63;;;13.01;82.70
71770;BME280;66386;52.122;5.420;2023-05-23T04:45:31;102155.63;;;13.00;82.48
71770;BME280;66386;52.122;5.420;2023-05-23T04:47:59;102166.88;;;12.97;82.90
71770;BME280;66386;52.122;5.420;2023-05-23T04:50:26;102166.88;;;12.97;82.66
71770;BME280;66386;52.122;5.420;2023-05-23T04:52:56;102162.56;;;12.98;82.71
71770;BME280;66386;52.122;5.420;2023-05-23T04:55:23;102166.88;;;12.97;82.57
71770;BME280;66386;52.122;5.420;2023-05-23T04:57:50;102171.22;;;12.95;82.29
71770;BME280;66386;52.122;5.420;2023-05-23T05:00:17;102178.16;;;12.93;82.46
71770;BME280;66386;52.122;5.420;2023-05-23T05:02:43;102181.56;;;12.93;82.31
71770;BME280;66386;52.122;5.420;2023-05-23T05:05:10;102193.69;;;12.91;82.14
71770;BME280;66386;52.122;5.420;2023-05-23T05:07:36;102193.72;;;12.90;81.82
71770;BME280;66386;52.122;5.420;2023-05-23T05:10:03;102196.47;;;12.84;81.79
71770;BME280;66386;52.122;5.420;2023-05-23T05:12:29;102205.06;;;12.83;81.75
71770;BME280;66386;52.122;5.420;2023-05-23T05:14:56;102205.91;;;12.83;81.18
71770;BME280;66386;52.122;5.420;2023-05-23T05:17:23;102207.78;;;12.78;80.46
71770;BME280;66386;52.122;5.420;2023-05-23T05:19:50;102217.47;;;12.68;80.43
71770;BME280;66386;52.122;5.420;2023-05-23T05:22:16;102216.69;;;12.65;79.98
71770;BME280;66386;52.122;5.420;2023-05-23T05:24:43;102225.38;;;12.61;79.45
71770;BME280;66386;52.122;5.420;2023-05-23T05:27:10;102228.03;;;12.57;79.50
71770;BME280;66386;52.122;5.420;2023-05-23T05:29:37;102222.00;;;12.57;79.34
71770;BME280;66386;52.122;5.420;2023-05-23T05:32:03;102238.44;;;12.54;78.57
71770;BME280;66386;52.122;5.420;2023-05-23T05:34:30;102234.97;;;12.54;78.10
71770;BME280;66386;52.122;5.420;2023-05-23T05:36:57;102241.00;;;12.54;78.24
71770;BME280;66386;52.122;5.420;2023-05-23T05:39:23;102242.69;;;12.55;77.88
71770;BME280;66386;52.122;5.420;2023-05-23T05:41:51;102252.88;;;12.62;77.32
71770;BME280;66386;52.122;5.420;2023-05-23T05:44:18;102242.50;;;12.65;76.75
71770;BME280;66386;52.122;5.420;2023-05-23T05:46:44;102251.81;;;12.70;77.11
71770;BME280;66386;52.122;5.420;2023-05-23T05:49:11;102252.59;;;12.74;76.60
71770;BME280;66386;52.122;5.420;2023-05-23T05:51:38;102253.44;;;12.74;76.23
71770;BME280;66386;52.122;5.420;2023-05-23T05:54:04;102251.59;;;12.80;75.65
71770;BME280;66386;52.122;5.420;2023-05-23T05:56:31;102253.19;;;12.85;75.70
71770;BME280;66386;52.122;5.420;2023-05-23T05:58:57;102260.03;;;12.86;75.44
71770;BME280;66386;52.122;5.420;2023-05-23T06:01:24;102267.75;;;12.86;75.01
71770;BME280;66386;52.122;5.420;2023-05-23T06:03:52;102267.75;;;12.86;75.08
71770;BME280;66386;52.122;5.420;2023-05-23T06:06:18;102263.53;;;12.84;74.13
71770;BME280;66386;52.122;5.420;2023-05-23T06:08:45;102278.31;;;12.77;74.41
71770;BME280;66386;52.122;5.420;2023-05-23T06:11:11;102283.44;;;12.79;73.47
71770;BME280;66386;52.122;5.420;2023-05-23T06:13:38;102286.13;;;12.74;73.43
71770;BME280;66386;52.122;5.420;2023-05-23T06:16:05;102279.19;;;12.78;73.76
71770;BME280;66386;52.122;5.420;2023-05-23T06:18:32;102288.69;;;12.74;73.00
71770;BME280;66386;52.122;5.420;2023-05-23T06:20:59;102288.75;;;12.72;72.96
71770;BME280;66386;52.122;5.420;2023-05-23T06:23:25;102287.97;;;12.69;73.42
71770;BME280;66386;52.122;5.420;2023-05-23T06:25:51;102285.25;;;12.75;73.76
71770;BME280;66386;52.122;5.420;2023-05-23T06:28:18;102282.63;;;12.77;73.77
71770;BME280;66386;52.122;5.420;2023-05-23T06:30:45;102284.34;;;12.76;74.04
71770;BME280;66386;52.122;5.420;2023-05-23T06:33:11;102281.81;;;12.74;74.04
71770;BME280;66386;52.122;5.420;2023-05-23T06:35:38;102287.81;;;12.75;74.28
71770;BME280;66386;52.122;5.420;2023-05-23T06:38:05;102289.56;;;12.73;74.12
71770;BME280;66386;52.122;5.420;2023-05-23T06:40:31;102283.50;;;12.75;74.23
71770;BME280;66386;52.122;5.420;2023-05-23T06:42:58;102293.03;;;12.73;74.36
71770;BME280;66386;52.122;5.420;2023-05-23T06:45:24;102282.78;;;12.70;74.33
71770;BME280;66386;52.122;5.420;2023-05-23T06:47:51;102276.75;;;12.70;74.55
71770;BME280;66386;52.122;5.420;2023-05-23T06:50:17;102290.44;;;12.73;74.79
71770;BME280;66386;52.122;5.420;2023-05-23T06:52:45;102293.88;;;12.74;75.28
71770;BME280;66386;52.122;5.420;2023-05-23T06:55:12;102294.69;;;12.74;75.42
71770;BME280;66386;52.122;5.420;2023-05-23T06:57:43;102299.97;;;12.70;75.91
71770;BME280;66386;52.122;5.420;2023-05-23T07:00:10;102298.34;;;12.66;76.16
71770;BME280;66386;52.122;5.420;2023-05-23T07:02:38;102294.09;;;12.65;76.13
71770;BME280;66386;52.122;5.420;2023-05-23T07:05:05;102311.28;;;12.64;76.16
71770;BME280;66386;52.122;5.420;2023-05-23T07:07:32;102315.63;;;12.62;76.81
71770;BME280;66386;52.122;5.420;2023-05-23T07:09:58;102308.78;;;12.60;77.16
71770;BME280;66386;52.122;5.420;2023-05-23T07:12:25;102303.56;;;12.63;77.29
71770;BME280;66386;52.122;5.420;2023-05-23T07:14:51;102311.22;;;12.66;77.70
71770;BME280;66386;52.122;5.420;2023-05-23T07:17:18;102312.22;;;12.62;78.36
71770;BME280;66386;52.122;5.420;2023-05-23T07:19:45;102319.94;;;12.62;78.83
71770;BME280;66386;52.122;5.420;2023-05-23T07:22:17;102319.03;;;12.63;78.43
71770;BME280;66386;52.122;5.420;2023-05-23T07:24:44;102326.03;;;12.57;77.24
71770;BME280;66386;52.122;5.420;2023-05-23T07:27:11;102314.94;;;12.54;76.42
71770;BME280;66386;52.122;5.420;2023-05-23T07:29:38;102327.63;;;12.65;76.46
71770;BME280;66386;52.122;5.420;2023-05-23T07:32:04;102333.34;;;12.78;75.36
71770;BME280;66386;52.122;5.420;2023-05-23T07:34:31;102331.50;;;12.83;73.86
71770;BME280;66386;52.122;5.420;2023-05-23T07:36:58;102324.34;;;12.96;72.54
71770;BME280;66386;52.122;5.420;2023-05-23T07:39:24;102329.09;;;13.14;72.07
71770;BME280;66386;52.122;5.420;2023-05-23T07:41:53;102342.00;;;13.13;69.73
71770;BME280;66386;52.122;5.420;2023-05-23T07:44:19;102334.56;;;13.00;69.79
71770;BME280;66386;52.122;5.420;2023-05-23T07:46:50;102336.34;;;12.98;69.53
71770;BME280;66386;52.122;5.420;2023-05-23T07:49:20;102340.47;;;13.04;70.42
71770;BME280;66386;52.122;5.420;2023-05-23T07:51:46;102332.72;;;13.05;67.47
71770;BME280;66386;52.122;5.420;2023-05-23T07:54:13;102348.19;;;13.07;68.05
71770;BME280;66386;52.122;5.420;2023-05-23T07:56:42;102335.53;;;13.32;68.35
71770;BME280;66386;52.122;5.420;2023-05-23T07:59:11;102345.78;;;13.37;66.74
71770;BME280;66386;52.122;5.420;2023-05-23T08:01:41;102341.31;;;13.43;66.41
71770;BME280;66386;52.122;5.420;2023-05-23T08:04:09;102343.63;;;13.54;66.80
71770;BME280;66386;52.122;5.420;2023-05-23T08:06:36;102343.41;;;13.62;65.95
71770;BME280;66386;52.122;5.420;2023-05-23T08:09:07;102346.78;;;13.66;65.52
71770;BME280;66386;52.122;5.420;2023-05-23T08:11:34;102348.63;;;13.60;65.73
71770;BME280;66386;52.122;5.420;2023-05-23T08:14:06;102345.22;;;13.60;66.10
71770;BME280;66386;52.122;5.420;2023-05-23T08:16:33;102343.91;;;13.76;66.36
71770;BME280;66386;52.122;5.420;2023-05-23T08:19:00;102356.72;;;13.81;65.01
71770;BME280;66386;52.122;5.420;2023-05-23T08:21:27;102350.00;;;13.74;64.73
71770;BME280;66386;52.122;5.420;2023-05-23T08:23:53;102354.38;;;13.72;64.68
71770;BME280;66386;52.122;5.420;2023-05-23T08:26:20;102357.16;;;13.64;65.70
71770;BME280;66386;52.122;5.420;2023-05-23T08:28:47;102356.16;;;13.70;65.46
71770;BME280;66386;52.122;5.420;2023-05-23T08:31:14;102363.78;;;13.74;65.30
71770;BME280;66386;52.122;5.420;2023-05-23T08:33:40;102362.84;;;13.78;65.21
71770;BME280;66386;52.122;5.420;2023-05-23T08:36:07;102359.19;;;13.86;63.95
71770;BME280;66386;52.122;5.420;2023-05-23T08:38:34;102374.47;;;13.95;63.57
71770;BME280;66386;52.122;5.420;2023-05-23T08:41:11;102366.09;;;13.85;62.93
71770;BME280;66386;52.122;5.420;2023-05-23T08:43:41;102369.69;;;13.79;63.73
71770;BME280;66386;52.122;5.420;2023-05-23T08:46:08;102380.78;;;13.83;63.98
71770;BME280;66386;52.122;5.420;2023-05-23T08:48:37;102373.72;;;13.90;64.26
71770;BME280;66386;52.122;5.420;2023-05-23T08:51:04;102383.97;;;13.93;62.72
71770;BME280;66386;52.122;5.420;2023-05-23T08:53:32;102387.28;;;13.98;63.23
71770;BME280;66386;52.122;5.420;2023-05-23T08:56:02;102379.91;;;14.17;61.94
71770;BME280;66386;52.122;5.420;2023-05-23T08:58:30;102389.84;;;14.32;61.47
71770;BME280;66386;52.122;5.420;2023-05-23T09:00:58;102389.44;;;14.46;61.19
71770;BME280;66386;52.122;5.420;2023-05-23T09:03:28;102386.13;;;14.41;61.94
71770;BME280;66386;52.122;5.420;2023-05-23T09:05:55;102393.31;;;14.31;62.68
71770;BME280;66386;52.122;5.420;2023-05-23T09:08:23;102388.78;;;14.38;61.87
71770;BME280;66386;52.122;5.420;2023-05-23T09:10:50;102397.22;;;14.45;61.67
71770;BME280;66386;52.122;5.420;2023-05-23T09:13:17;102401.97;;;14.62;61.29
71770;BME280;66386;52.122;5.420;2023-05-23T09:16:15;102397.66;;;14.61;59.72
71770;BME280;66386;52.122;5.420;2023-05-23T09:18:43;102390.16;;;15.10;58.19
71770;BME280;66386;52.122;5.420;2023-05-23T09:21:10;102399.44;;;15.45;56.83
71770;BME280;66386;52.122;5.420;2023-05-23T09:23:39;102402.47;;;15.85;56.62
71770;BME280;66386;52.122;5.420;2023-05-23T09:26:12;102411.13;;;15.84;56.44
71770;BME280;66386;52.122;5.420;2023-05-23T09:28:41;102406.88;;;15.83;56.34
71770;BME280;66386;52.122;5.420;2023-05-23T09:31:09;102415.28;;;15.90;55.16
71770;BME280;66386;52.122;5.420;2023-05-23T09:33:39;102407.66;;;15.85;55.02
71770;BME280;66386;52.122;5.420;2023-05-23T09:36:06;102413.88;;;15.52;56.44
71770;BME280;66386;52.122;5.420;2023-05-23T09:38:40;102411.78;;;15.37;57.38
71770;BME280;66386;52.122;5.420;2023-05-23T09:41:08;102409.69;;;15.48;58.04
71770;BME280;66386;52.122;5.420;2023-05-23T09:43:58;102415.66;;;15.50;57.51
71770;BME280;66386;52.122;5.420;2023-05-23T09:46:27;102411.53;;;15.71;56.20
71770;BME280;66386;52.122;5.420;2023-05-23T09:48:55;102404.59;;;15.72;55.67
71770;BME280;66386;52.122;5.420;2023-05-23T09:51:22;102403.06;;;15.66;55.08
71770;BME280;66386;52.122;5.420;2023-05-23T09:53:49;102411.53;;;15.98;54.31
71770;BME280;66386;52.122;5.420;2023-05-23T09:56:16;102411.44;;;16.50;52.62
71770;BME280;66386;52.122;5.420;2023-05-23T09:58:48;102419.50;;;16.66;53.03
71770;BME280;66386;52.122;5.420;2023-05-23T10:01:18;102412.59;;;16.89;50.92
71770;BME280;66386;52.122;5.420;2023-05-23T10:03:51;102422.31;;;16.84;52.53
71770;BME280;66386;52.122;5.420;2023-05-23T10:06:31;102426.69;;;16.34;52.49
71770;BME280;66386;52.122;5.420;2023-05-23T10:09:04;102431.59;;;15.93;53.54
71770;BME280;66386;52.122;5.420;2023-05-23T10:14:08;102414.63;;;16.33;51.72
71770;BME280;66386;52.122;5.420;2023-05-23T10:16:52;102422.53;;;16.54;50.85
71770;BME280;66386;52.122;5.420;2023-05-23T10:19:54;102429.72;;;16.47;50.88
71770;BME280;66386;52.122;5.420;2023-05-23T10:22:35;102441.94;;;16.44;51.68
71770;BME280;66386;52.122;5.420;2023-05-23T10:25:05;102426.00;;;16.29;53.46
71770;BME280;66386;52.122;5.420;2023-05-23T10:27:33;102437.94;;;16.10;54.28
71770;BME280;66386;52.122;5.420;2023-05-23T10:30:00;102441.78;;;15.71;55.52
71770;BME280;66386;52.122;5.420;2023-05-23T10:32:28;102445.72;;;15.56;56.78
71770;BME280;66386;52.122;5.420;2023-05-23T10:35:16;102441.69;;;15.74;56.81
71770;BME280;66386;52.122;5.420;2023-05-23T10:38:05;102437.38;;;16.25;53.82
71770;BME280;66386;52.122;5.420;2023-05-23T10:40:52;102431.94;;;16.08;53.55
71770;BME280;66386;52.122;5.420;2023-05-23T10:43:30;102443.06;;;16.36;53.49
71770;BME280;66386;52.122;5.420;2023-05-23T10:45:59;102447.13;;;16.44;52.38
71770;BME280;66386;52.122;5.420;2023-05-23T10:48:34;102440.31;;;16.16;52.83
71770;BME280;66386;52.122;5.420;2023-05-23T10:51:08;102444.63;;;16.17;53.33
71770;BME280;66386;52.122;5.420;2023-05-23T10:53:36;102458.13;;;16.27;53.18
71770;BME280;66386;52.122;5.420;2023-05-23T10:56:04;102452.56;;;16.12;53.01
71770;BME280;66386;52.122;5.420;2023-05-23T10:58:34;102447.38;;;15.85;53.58
71770;BME280;66386;52.122;5.420;2023-05-23T11:01:07;102442.41;;;16.04;54.86
71770;BME280;66386;52.122;5.420;2023-05-23T11:06:37;102444.72;;;16.63;52.43
71770;BME280;66386;52.122;5.420;2023-05-23T11:09:15;102442.97;;;16.63;51.46
71770;BME280;66386;52.122;5.420;2023-05-23T11:11:51;102445.09;;;16.52;51.40
71770;BME280;66386;52.122;5.420;2023-05-23T11:17:29;102446.69;;;17.03;49.98
71770;BME280;66386;52.122;5.420;2023-05-23T11:20:08;102443.94;;;17.51;48.94
71770;BME280;66386;52.122;5.420;2023-05-23T11:22:35;102437.59;;;17.80;47.14
71770;BME280;66386;52.122;5.420;2023-05-23T11:25:07;102432.50;;;17.34;47.19
71770;BME280;66386;52.122;5.420;2023-05-23T11:27:38;102449.84;;;16.64;48.95
71770;BME280;66386;52.122;5.420;2023-05-23T11:30:15;102449.31;;;16.31;50.39
71770;BME280;66386;52.122;5.420;2023-05-23T11:32:53;102453.72;;;16.52;50.62
71770;BME280;66386;52.122;5.420;2023-05-23T11:35:21;102469.38;;;16.51;50.23
71770;BME280;66386;52.122;5.420;2023-05-23T11:37:47;102457.38;;;16.47;51.27
71770;BME280;66386;52.122;5.420;2023-05-23T11:40:28;102450.75;;;16.63;51.50
71770;BME280;66386;52.122;5.420;2023-05-23T11:42:56;102455.44;;;16.53;50.87
71770;BME280;66386;52.122;5.420;2023-05-23T11:45:25;102465.69;;;16.33;50.97
71770;BME280;66386;52.122;5.420;2023-05-23T11:47:52;102455.47;;;16.28;50.78
71770;BME280;66386;52.122;5.420;2023-05-23T11:50:19;102454.75;;;16.48;50.33
71770;BME280;66386;52.122;5.420;2023-05-23T11:52:50;102451.94;;;16.78;50.25
71770;BME280;66386;52.122;5.420;2023-05-23T11:55:21;102465.03;;;16.75;49.28
71770;BME280;66386;52.122;5.420;2023-05-23T11:57:48;102460.09;;;16.44;50.30
71770;BME280;66386;52.122;5.420;2023-05-23T12:00:17;102465.41;;;16.15;51.54
71770;BME280;66386;52.122;5.420;2023-05-23T12:02:45;102465.09;;;16.25;50.82
71770;BME280;66386;52.122;5.420;2023-05-23T12:05:15;102470.59;;;16.64;49.25
71770;BME280;66386;52.122;5.420;2023-05-23T12:07:45;102465.69;;;16.80;50.04
71770;BME280;66386;52.122;5.420;2023-05-23T12:10:15;102472.03;;;16.73;50.21
71770;BME280;66386;52.122;5.420;2023-05-23T12:12:42;102478.56;;;16.60;49.99
71770;BME280;66386;52.122;5.420;2023-05-23T12:15:11;102471.59;;;16.85;49.14
71770;BME280;66386;52.122;5.420;2023-05-23T12:17:38;102472.09;;;17.19;47.42
71770;BME280;66386;52.122;5.420;2023-05-23T12:20:10;102457.34;;;17.19;45.81
71770;BME280;66386;52.122;5.420;2023-05-23T12:22:37;102469.81;;;16.86;46.69
71770;BME280;66386;52.122;5.420;2023-05-23T12:25:07;102470.38;;;16.70;48.70
71770;BME280;66386;52.122;5.420;2023-05-23T12:27:35;102478.94;;;16.98;47.93
71770;BME280;66386;52.122;5.420;2023-05-23T12:30:15;102476.66;;;17.34;46.94
71770;BME280;66386;52.122;5.420;2023-05-23T12:32:43;102466.44;;;17.07;47.34
71770;BME280;66386;52.122;5.420;2023-05-23T12:35:12;102467.94;;;16.91;47.89
71770;BME280;66386;52.122;5.420;2023-05-23T12:37:43;102477.22;;;16.73;47.12
71770;BME280;66386;52.122;5.420;2023-05-23T12:40:13;102474.56;;;16.51;47.61
71770;BME280;66386;52.122;5.420;2023-05-23T12:42:50;102482.94;;;16.59;46.58
71770;BME280;66386;52.122;5.420;2023-05-23T12:45:19;102482.59;;;17.16;46.47
71770;BME280;66386;52.122;5.420;2023-05-23T12:47:49;102474.06;;;17.12;45.43
71770;BME280;66386;52.122;5.420;2023-05-23T12:50:19;102485.59;;;16.81;46.56
71770;BME280;66386;52.122;5.420;2023-05-23T12:52:45;102493.50;;;16.78;47.75
71770;BME280;66386;52.122;5.420;2023-05-23T12:55:12;102483.69;;;16.61;48.73
71770;BME280;66386;52.122;5.420;2023-05-23T12:57:42;102496.91;;;16.55;50.34
71770;BME280;66386;52.122;5.420;2023-05-23T13:00:17;102495.53;;;16.45;50.05
71770;BME280;66386;52.122;5.420;2023-05-23T13:02:44;102488.28;;;16.29;48.49
71770;BME280;66386;52.122;5.420;2023-05-23T13:05:11;102479.81;;;16.49;47.54
71770;BME280;66386;52.122;5.420;2023-05-23T13:07:38;102480.44;;;16.56;47.74
71770;BME280;66386;52.122;5.420;2023-05-23T13:10:05;102482.81;;;16.62;47.39
71770;BME280;66386;52.122;5.420;2023-05-23T13:12:35;102483.41;;;16.69;47.20